sensor_id;sensor_type;location;lat;lon;timestamp;temperature;humidity
49579;DHT22;35483;50.828;3.228;2023-02-23T00:01:48;10.20;99.90
49579;DHT22;35483;50.828;3.228;2023-02-23T00:04:14;10.20;99.90
49579;DHT22;35483;50.828;3.228;2023-02-23T00:06:40;10.20;99.90
49579;DHT22;35483;50.828;3.228;2023-02-23T00:09:06;10.20;99.90
49579;DHT22;35483;50.828;3.228;2023-02-23T00:11:36;10.20;99.90
49579;DHT22;35483;50.828;3.228;2023-02-23T00:14:02;10.30;99.90
49579;DHT22;35483;50.828;3.228;2023-02-23T00:16:28;10.30;99.90
49579;DHT22;35483;50.828;3.228;2023-02-23T00:18:57;10.30;99.90
49579;DHT22;35483;50.828;3.228;2023-02-23T00:21:30;10.40;99.90
49579;DHT22;35483;50.828;3.228;2023-02-23T00:24:05;10.40;99.90
49579;DHT22;35483;50.828;3.228;2023-02-23T00:26:35;10.40;99.90
49579;DHT22;35483;50.828;3.228;2023-02-23T00:29:04;10.40;99.90
49579;DHT22;35483;50.828;3.228;2023-02-23T00:31:30;10.40;99.90
49579;DHT22;35483;50.828;3.228;2023-02-23T00:33:59;10.40;99.90
49579;DHT22;35483;50.828;3.228;2023-02-23T00:36:27;10.40;99.90
49579;DHT22;35483;50.828;3.228;2023-02-23T00:38:55;10.40;99.90
49579;DHT22;35483;50.828;3.228;2023-02-23T00:41:21;10.40;99.90
49579;DHT22;35483;50.828;3.228;2023-02-23T00:43:50;10.40;99.90
49579;DHT22;35483;50.828;3.228;2023-02-23T00:46:21;10.40;99.90
49579;DHT22;35483;50.828;3.228;2023-02-23T00:48:49;10.30;99.90
49579;DHT22;35483;50.828;3.228;2023-02-23T00:51:17;10.30;99.90
49579;DHT22;35483;50.828;3.228;2023-02-23T00:53:43;10.30;99.90
49579;DHT22;35483;50.828;3.228;2023-02-23T00:56:13;10.30;99.90
49579;DHT22;35483;50.828;3.228;2023-02-23T00:58:39;10.30;99.90
49579;DHT22;35483;50.828;3.228;2023-02-23T01:01:11;10.30;99.90
49579;DHT22;35483;50.828;3.228;2023-02-23T01:03:39;10.30;99.90
49579;DHT22;35483;50.828;3.228;2023-02-23T01:06:08;10.40;99.90
49579;DHT22;35483;50.828;3.228;2023-02-23T01:08:37;10.40;99.90
49579;DHT22;35483;50.828;3.228;2023-02-23T01:11:12;10.40;99.90
49579;DHT22;35483;50.828;3.228;2023-02-23T01:13:39;10.30;99.90
49579;DHT22;35483;50.828;3.228;2023-02-23T01:16:06;10.30;99.90
49579;DHT22;35483;50.828;3.228;2023-02-23T01:18:33;10.30;99.90
49579;DHT22;35483;50.828;3.228;2023-02-23T01:20:59;10.30;99.90
49579;DHT22;35483;50.828;3.228;2023-02-23T01:23:25;10.30;99.90
49579;DHT22;35483;50.828;3.228;2023-02-23T01:25:51;10.30;99.90
49579;DHT22;35483;50.828;3.228;2023-02-23T01:28:17;10.30;99.90
49579;DHT22;35483;50.828;3.228;2023-02-23T01:30:43;10.30;99.90
49579;DHT22;35483;50.828;3.228;2023-02-23T01:33:09;10.30;99.90
49579;DHT22;35483;50.828;3.228;2023-02-23T01:35:37;10.30;99.90
49579;DHT22;35483;50.828;3.228;2023-02-23T01:38:03;10.20;99.90
49579;DHT22;35483;50.828;3.228;2023-02-23T01:40:30;10.20;99.90
49579;DHT22;35483;50.828;3.228;2023-02-23T01:42:59;10.20;99.90
49579;DHT22;35483;50.828;3.228;2023-02-23T01:45:26;10.20;99.90
49579;DHT22;35483;50.828;3.228;2023-02-23T01:47:56;10.20;99.90
49579;DHT22;35483;50.828;3.228;2023-02-23T01:50:26;10.20;99.90
49579;DHT22;35483;50.828;3.228;2023-02-23T01:52:54;10.10;99.90
49579;DHT22;35483;50.828;3.228;2023-02-23T01:55:22;10.10;99.90
49579;DHT22;35483;50.828;3.228;2023-02-23T01:58:02;10.10;99.90
49579;DHT22;35483;50.828;3.228;2023-02-23T02:00:30;10.10;99.90
49579;DHT22;35483;50.828;3.228;2023-02-23T02:02:59;10.00;99.90
49579;DHT22;35483;50.828;3.228;2023-02-23T02:05:26;10.00;99.90
49579;DHT22;35483;50.828;3.228;2023-02-23T02:07:53;10.00;99.90
49579;DHT22;35483;50.828;3.228;2023-02-23T02:10:26;10.10;99.90
49579;DHT22;35483;50.828;3.228;2023-02-23T02:13:06;10.10;99.90
49579;DHT22;35483;50.828;3.228;2023-02-23T02:15:37;10.10;99.90
49579;DHT22;35483;50.828;3.228;2023-02-23T02:24:03;10.10;99.90
49579;DHT22;35483;50.828;3.228;2023-02-23T02:35:15;10.10;99.90
49579;DHT22;35483;50.828;3.228;2023-02-23T02:41:04;10.10;99.90
49579;DHT22;35483;50.828;3.228;2023-02-23T02:43:52;10.10;99.90
49579;DHT22;35483;50.828;3.228;2023-02-23T02:46:24;10.10;99.90
49579;DHT22;35483;50.828;3.228;2023-02-23T02:51:42;10.10;99.90
49579;DHT22;35483;50.828;3.228;2023-02-23T02:55:01;10.00;99.90
49579;DHT22;35483;50.828;3.228;2023-02-23T02:57:07;10.00;99.90
49579;DHT22;35483;50.828;3.228;2023-02-23T02:59:48;10.10;99.90
49579;DHT22;35483;50.828;3.228;2023-02-23T03:02:39;10.10;99.90
49579;DHT22;35483;50.828;3.228;2023-02-23T03:05:29;10.10;99.90
49579;DHT22;35483;50.828;3.228;2023-02-23T03:08:37;10.10;99.90
49579;DHT22;35483;50.828;3.228;2023-02-23T03:11:24;10.10;99.90
49579;DHT22;35483;50.828;3.228;2023-02-23T03:17:43;10.00;99.90
49579;DHT22;35483;50.828;3.228;2023-02-23T03:23:18;9.90;99.90
49579;DHT22;35483;50.828;3.228;2023-02-23T03:26:11;9.90;99.90
49579;DHT22;35483;50.828;3.228;2023-02-23T03:32:02;9.90;99.90
49579;DHT22;35483;50.828;3.228;2023-02-23T03:35:12;9.90;99.90
49579;DHT22;35483;50.828;3.228;2023-02-23T03:38:09;9.90;99.90
49579;DHT22;35483;50.828;3.228;2023-02-23T03:40:54;9.90;99.90
49579;DHT22;35483;50.828;3.228;2023-02-23T03:43:47;9.80;99.90
49579;DHT22;35483;50.828;3.228;2023-02-23T03:46:33;9.90;99.90
49579;DHT22;35483;50.828;3.228;2023-02-23T03:49:19;9.90;99.90
49579;DHT22;35483;50.828;3.228;2023-02-23T03:52:09;9.90;99.90
49579;DHT22;35483;50.828;3.228;2023-02-23T03:55:04;9.90;99.90
49579;DHT22;35483;50.828;3.228;2023-02-23T03:57:54;9.90;99.90
49579;DHT22;35483;50.828;3.228;2023-02-23T04:00:44;9.90;99.90
49579;DHT22;35483;50.828;3.228;2023-02-23T04:03:31;9.90;99.90
49579;DHT22;35483;50.828;3.228;2023-02-23T04:06:17;9.90;99.90
49579;DHT22;35483;50.828;3.228;2023-02-23T04:09:04;9.80;99.90
49579;DHT22;35483;50.828;3.228;2023-02-23T04:15:09;9.90;99.90
49579;DHT22;35483;50.828;3.228;2023-02-23T04:17:37;9.90;99.90
49579;DHT22;35483;50.828;3.228;2023-02-23T04:20:04;9.90;99.90
49579;DHT22;35483;50.828;3.228;2023-02-23T04:22:31;9.90;99.90
49579;DHT22;35483;50.828;3.228;2023-02-23T04:24:57;9.90;99.90
49579;DHT22;35483;50.828;3.228;2023-02-23T04:27:23;10.00;99.90
49579;DHT22;35483;50.828;3.228;2023-02-23T04:29:48;10.00;99.90
49579;DHT22;35483;50.828;3.228;2023-02-23T04:32:17;9.90;99.90
49579;DHT22;35483;50.828;3.228;2023-02-23T04:34:44;9.90;99.90
49579;DHT22;35483;50.828;3.228;2023-02-23T04:37:10;9.90;99.90
49579;DHT22;35483;50.828;3.228;2023-02-23T04:39:36;9.90;99.90
49579;DHT22;35483;50.828;3.228;2023-02-23T04:42:02;9.90;99.90
49579;DHT22;35483;50.828;3.228;2023-02-23T04:44:28;9.90;99.90
49579;DHT22;35483;50.828;3.228;2023-02-23T04:46:55;9.90;99.90
49579;DHT22;35483;50.828;3.228;2023-02-23T04:49:21;9.80;99.90
49579;DHT22;35483;50.828;3.228;2023-02-23T04:51:48;9.80;99.90
49579;DHT22;35483;50.828;3.228;2023-02-23T04:54:14;9.70;99.90
49579;DHT22;35483;50.828;3.228;2023-02-23T04:56:40;9.70;99.90
49579;DHT22;35483;50.828;3.228;2023-02-23T04:59:06;9.70;99.90
49579;DHT22;35483;50.828;3.228;2023-02-23T05:01:31;9.70;99.90
49579;DHT22;35483;50.828;3.228;2023-02-23T05:03:58;9.70;99.90
49579;DHT22;35483;50.828;3.228;2023-02-23T05:06:25;9.70;99.90
49579;DHT22;35483;50.828;3.228;2023-02-23T05:08:51;9.70;99.90
49579;DHT22;35483;50.828;3.228;2023-02-23T05:11:18;9.70;99.90
49579;DHT22;35483;50.828;3.228;2023-02-23T05:13:44;9.60;99.90
49579;DHT22;35483;50.828;3.228;2023-02-23T05:16:10;9.60;99.90
49579;DHT22;35483;50.828;3.228;2023-02-23T05:18:35;9.50;99.90
49579;DHT22;35483;50.828;3.228;2023-02-23T05:21:05;9.50;99.90
49579;DHT22;35483;50.828;3.228;2023-02-23T05:23:33;9.50;99.90
49579;DHT22;35483;50.828;3.228;2023-02-23T05:26:08;9.40;99.90
49579;DHT22;35483;50.828;3.228;2023-02-23T05:28:35;9.40;99.90
49579;DHT22;35483;50.828;3.228;2023-02-23T05:31:01;9.40;99.90
49579;DHT22;35483;50.828;3.228;2023-02-23T05:33:31;9.30;99.90
49579;DHT22;35483;50.828;3.228;2023-02-23T05:35:57;9.40;99.90
49579;DHT22;35483;50.828;3.228;2023-02-23T05:38:23;9.40;99.90
49579;DHT22;35483;50.828;3.228;2023-02-23T05:40:49;9.40;99.90
49579;DHT22;35483;50.828;3.228;2023-02-23T05:43:15;9.40;99.90
49579;DHT22;35483;50.828;3.228;2023-02-23T05:45:42;9.50;99.90
49579;DHT22;35483;50.828;3.228;2023-02-23T05:48:08;9.50;99.90
49579;DHT22;35483;50.828;3.228;2023-02-23T05:50:34;9.60;99.90
49579;DHT22;35483;50.828;3.228;2023-02-23T05:53:00;9.60;99.90
49579;DHT22;35483;50.828;3.228;2023-02-23T05:55:26;9.60;99.90
49579;DHT22;35483;50.828;3.228;2023-02-23T05:57:52;9.60;99.90
49579;DHT22;35483;50.828;3.228;2023-02-23T06:00:18;9.60;99.90
49579;DHT22;35483;50.828;3.228;2023-02-23T06:02:44;9.60;99.90
49579;DHT22;35483;50.828;3.228;2023-02-23T06:05:11;9.60;99.90
49579;DHT22;35483;50.828;3.228;2023-02-23T06:07:38;9.60;99.90
49579;DHT22;35483;50.828;3.228;2023-02-23T06:10:05;9.60;99.90
49579;DHT22;35483;50.828;3.228;2023-02-23T06:12:31;9.60;99.90
49579;DHT22;35483;50.828;3.228;2023-02-23T06:14:56;9.60;99.90
49579;DHT22;35483;50.828;3.228;2023-02-23T06:17:23;9.60;99.90
49579;DHT22;35483;50.828;3.228;2023-02-23T06:19:49;9.60;99.90
49579;DHT22;35483;50.828;3.228;2023-02-23T06:22:15;9.70;99.90
49579;DHT22;35483;50.828;3.228;2023-02-23T06:24:44;9.60;99.90
49579;DHT22;35483;50.828;3.228;2023-02-23T06:27:10;9.70;99.90
49579;DHT22;35483;50.828;3.228;2023-02-23T06:29:36;9.70;99.90
49579;DHT22;35483;50.828;3.228;2023-02-23T06:32:03;9.70;99.90
49579;DHT22;35483;50.828;3.228;2023-02-23T06:34:29;9.70;99.90
49579;DHT22;35483;50.828;3.228;2023-02-23T06:36:54;9.70;99.90
49579;DHT22;35483;50.828;3.228;2023-02-23T06:39:20;9.70;99.90
49579;DHT22;35483;50.828;3.228;2023-02-23T06:41:46;9.80;99.90
49579;DHT22;35483;50.828;3.228;2023-02-23T06:44:12;9.80;99.90
49579;DHT22;35483;50.828;3.228;2023-02-23T06:46:37;9.80;99.90
49579;DHT22;35483;50.828;3.228;2023-02-23T06:49:03;9.80;99.90
49579;DHT22;35483;50.828;3.228;2023-02-23T06:51:29;9.70;99.90
49579;DHT22;35483;50.828;3.228;2023-02-23T06:53:54;9.70;99.90
49579;DHT22;35483;50.828;3.228;2023-02-23T06:56:20;9.70;99.90
49579;DHT22;35483;50.828;3.228;2023-02-23T06:58:46;9.80;99.90
49579;DHT22;35483;50.828;3.228;2023-02-23T07:01:13;9.70;99.90
49579;DHT22;35483;50.828;3.228;2023-02-23T07:03:38;9.70;99.90
49579;DHT22;35483;50.828;3.228;2023-02-23T07:06:04;9.70;99.90
49579;DHT22;35483;50.828;3.228;2023-02-23T07:08:33;9.80;99.90
49579;DHT22;35483;50.828;3.228;2023-02-23T07:11:07;9.80;99.90
49579;DHT22;35483;50.828;3.228;2023-02-23T07:13:33;9.80;99.90
49579;DHT22;35483;50.828;3.228;2023-02-23T07:15:59;9.80;99.90
49579;DHT22;35483;50.828;3.228;2023-02-23T07:18:24;9.90;99.90
49579;DHT22;35483;50.828;3.228;2023-02-23T07:20:51;9.90;99.90
49579;DHT22;35483;50.828;3.228;2023-02-23T07:23:17;9.90;99.90
49579;DHT22;35483;50.828;3.228;2023-02-23T07:25:43;10.00;99.90
49579;DHT22;35483;50.828;3.228;2023-02-23T07:28:09;10.00;99.90
49579;DHT22;35483;50.828;3.228;2023-02-23T07:30:38;10.00;99.90
49579;DHT22;35483;50.828;3.228;2023-02-23T07:33:04;10.00;99.90
49579;DHT22;35483;50.828;3.228;2023-02-23T07:35:29;10.10;99.90
49579;DHT22;35483;50.828;3.228;2023-02-23T07:37:55;10.10;99.90
49579;DHT22;35483;50.828;3.228;2023-02-23T07:40:21;10.10;99.90
49579;DHT22;35483;50.828;3.228;2023-02-23T07:42:46;10.10;99.90
49579;DHT22;35483;50.828;3.228;2023-02-23T07:45:12;10.10;99.90
49579;DHT22;35483;50.828;3.228;2023-02-23T07:47:38;10.00;99.90
49579;DHT22;35483;50.828;3.228;2023-02-23T07:50:05;10.00;99.90
49579;DHT22;35483;50.828;3.228;2023-02-23T07:52:35;10.00;99.90
49579;DHT22;35483;50.828;3.228;2023-02-23T07:55:01;10.10;99.90
49579;DHT22;35483;50.828;3.228;2023-02-23T07:57:26;10.20;99.90
49579;DHT22;35483;50.828;3.228;2023-02-23T07:59:52;10.20;99.90
49579;DHT22;35483;50.828;3.228;2023-02-23T08:02:18;10.30;99.90
49579;DHT22;35483;50.828;3.228;2023-02-23T08:04:43;10.30;99.90
49579;DHT22;35483;50.828;3.228;2023-02-23T08:07:09;10.30;99.90
49579;DHT22;35483;50.828;3.228;2023-02-23T08:09:35;10.30;99.90
49579;DHT22;35483;50.828;3.228;2023-02-23T08:12:02;10.40;99.90
49579;DHT22;35483;50.828;3.228;2023-02-23T08:14:27;10.50;99.90
49579;DHT22;35483;50.828;3.228;2023-02-23T08:16:53;10.50;99.90
49579;DHT22;35483;50.828;3.228;2023-02-23T08:19:19;10.50;99.90
49579;DHT22;35483;50.828;3.228;2023-02-23T08:21:48;10.50;99.90
49579;DHT22;35483;50.828;3.228;2023-02-23T08:24:14;10.50;99.90
49579;DHT22;35483;50.828;3.228;2023-02-23T08:26:40;10.50;99.90
49579;DHT22;35483;50.828;3.228;2023-02-23T08:29:07;10.50;99.90
49579;DHT22;35483;50.828;3.228;2023-02-23T08:31:33;10.60;99.90
49579;DHT22;35483;50.828;3.228;2023-02-23T08:33:59;10.60;99.90
49579;DHT22;35483;50.828;3.228;2023-02-23T08:36:25;10.60;99.90
49579;DHT22;35483;50.828;3.228;2023-02-23T08:38:50;10.60;99.90
49579;DHT22;35483;50.828;3.228;2023-02-23T08:41:19;10.70;99.90
49579;DHT22;35483;50.828;3.228;2023-02-23T08:43:45;10.70;99.90
49579;DHT22;35483;50.828;3.228;2023-02-23T08:46:11;10.70;99.90
49579;DHT22;35483;50.828;3.228;2023-02-23T08:48:37;10.60;99.90
49579;DHT22;35483;50.828;3.228;2023-02-23T08:51:05;10.60;99.90
49579;DHT22;35483;50.828;3.228;2023-02-23T08:53:31;10.60;99.90
49579;DHT22;35483;50.828;3.228;2023-02-23T08:56:05;10.60;99.90
49579;DHT22;35483;50.828;3.228;2023-02-23T08:58:31;10.60;99.90
49579;DHT22;35483;50.828;3.228;2023-02-23T09:00:58;10.60;99.90
49579;DHT22;35483;50.828;3.228;2023-02-23T09:03:25;10.70;99.90
49579;DHT22;35483;50.828;3.228;2023-02-23T09:05:53;10.80;99.90
49579;DHT22;35483;50.828;3.228;2023-02-23T09:08:20;10.90;99.90
49579;DHT22;35483;50.828;3.228;2023-02-23T09:10:45;11.00;99.90
49579;DHT22;35483;50.828;3.228;2023-02-23T09:13:11;11.10;99.90
49579;DHT22;35483;50.828;3.228;2023-02-23T09:15:41;11.10;99.90
49579;DHT22;35483;50.828;3.228;2023-02-23T09:18:09;11.20;99.90
49579;DHT22;35483;50.828;3.228;2023-02-23T09:20:35;11.30;99.90
49579;DHT22;35483;50.828;3.228;2023-02-23T09:23:01;11.30;99.90
49579;DHT22;35483;50.828;3.228;2023-02-23T09:25:27;11.40;99.90
49579;DHT22;35483;50.828;3.228;2023-02-23T09:27:54;11.40;99.90
49579;DHT22;35483;50.828;3.228;2023-02-23T09:30:21;11.40;99.90
49579;DHT22;35483;50.828;3.228;2023-02-23T09:32:50;11.40;99.90
49579;DHT22;35483;50.828;3.228;2023-02-23T09:35:18;11.40;99.90
49579;DHT22;35483;50.828;3.228;2023-02-23T09:37:46;11.30;99.90
49579;DHT22;35483;50.828;3.228;2023-02-23T09:40:18;11.40;99.90
49579;DHT22;35483;50.828;3.228;2023-02-23T09:45:38;11.40;99.90
49579;DHT22;35483;50.828;3.228;2023-02-23T09:48:11;11.40;99.90
49579;DHT22;35483;50.828;3.228;2023-02-23T09:50:40;11.40;99.90
49579;DHT22;35483;50.828;3.228;2023-02-23T09:55:38;11.50;99.90
49579;DHT22;35483;50.828;3.228;2023-02-23T09:58:23;11.40;99.90
49579;DHT22;35483;50.828;3.228;2023-02-23T10:01:10;11.50;99.90
49579;DHT22;35483;50.828;3.228;2023-02-23T10:03:57;11.70;99.90
49579;DHT22;35483;50.828;3.228;2023-02-23T10:06:24;11.70;99.90
49579;DHT22;35483;50.828;3.228;2023-02-23T10:14:44;11.90;99.90
49579;DHT22;35483;50.828;3.228;2023-02-23T10:20:54;11.90;99.90
49579;DHT22;35483;50.828;3.228;2023-02-23T10:23:27;11.90;99.90
49579;DHT22;35483;50.828;3.228;2023-02-23T10:25:56;12.00;99.90
49579;DHT22;35483;50.828;3.228;2023-02-23T10:28:24;12.00;99.90
49579;DHT22;35483;50.828;3.228;2023-02-23T10:30:51;12.10;99.90
49579;DHT22;35483;50.828;3.228;2023-02-23T10:33:37;12.20;99.90
49579;DHT22;35483;50.828;3.228;2023-02-23T10:36:32;12.20;99.90
49579;DHT22;35483;50.828;3.228;2023-02-23T10:38:59;12.20;99.90
49579;DHT22;35483;50.828;3.228;2023-02-23T10:41:25;12.30;99.90
49579;DHT22;35483;50.828;3.228;2023-02-23T10:43:50;12.20;99.90
49579;DHT22;35483;50.828;3.228;2023-02-23T10:46:21;12.40;99.90
49579;DHT22;35483;50.828;3.228;2023-02-23T10:48:48;12.60;99.90
49579;DHT22;35483;50.828;3.228;2023-02-23T10:51:25;12.50;99.90
49579;DHT22;35483;50.828;3.228;2023-02-23T10:53:52;12.50;99.90
49579;DHT22;35483;50.828;3.228;2023-02-23T10:56:18;12.40;99.90
49579;DHT22;35483;50.828;3.228;2023-02-23T10:58:53;12.40;99.90
49579;DHT22;35483;50.828;3.228;2023-02-23T11:01:42;12.20;99.90
49579;DHT22;35483;50.828;3.228;2023-02-23T11:04:21;12.40;99.90
49579;DHT22;35483;50.828;3.228;2023-02-23T11:06:48;12.50;99.90
49579;DHT22;35483;50.828;3.228;2023-02-23T11:09:27;12.60;99.90
49579;DHT22;35483;50.828;3.228;2023-02-23T11:12:03;12.60;99.90
49579;DHT22;35483;50.828;3.228;2023-02-23T11:14:32;12.70;99.90
49579;DHT22;35483;50.828;3.228;2023-02-23T11:16:59;12.60;99.90
49579;DHT22;35483;50.828;3.228;2023-02-23T11:19:37;12.50;99.90
49579;DHT22;35483;50.828;3.228;2023-02-23T11:22:06;12.50;99.90
49579;DHT22;35483;50.828;3.228;2023-02-23T11:24:36;12.40;99.90
49579;DHT22;35483;50.828;3.228;2023-02-23T11:27:06;12.30;99.90
49579;DHT22;35483;50.828;3.228;2023-02-23T11:29:43;12.30;99.90
49579;DHT22;35483;50.828;3.228;2023-02-23T11:32:21;12.40;99.90
49579;DHT22;35483;50.828;3.228;2023-02-23T11:37:36;12.30;99.90
49579;DHT22;35483;50.828;3.228;2023-02-23T11:40:18;12.20;99.90
49579;DHT22;35483;50.828;3.228;2023-02-23T11:45:31;11.80;99.90
49579;DHT22;35483;50.828;3.228;2023-02-23T11:48:00;11.80;99.90
49579;DHT22;35483;50.828;3.228;2023-02-23T11:50:28;11.80;99.90
49579;DHT22;35483;50.828;3.228;2023-02-23T11:53:02;11.90;99.90
49579;DHT22;35483;50.828;3.228;2023-02-23T11:55:29;11.80;99.90
49579;DHT22;35483;50.828;3.228;2023-02-23T12:01:00;11.70;99.90
49579;DHT22;35483;50.828;3.228;2023-02-23T12:03:31;11.60;99.90
49579;DHT22;35483;50.828;3.228;2023-02-23T12:05:58;11.50;99.90
49579;DHT22;35483;50.828;3.228;2023-02-23T12:08:34;11.60;99.90
49579;DHT22;35483;50.828;3.228;2023-02-23T12:11:10;11.50;99.90
49579;DHT22;35483;50.828;3.228;2023-02-23T12:16:37;11.40;99.90
49579;DHT22;35483;50.828;3.228;2023-02-23T12:19:43;11.40;99.90
49579;DHT22;35483;50.828;3.228;2023-02-23T12:22:19;11.30;99.90
49579;DHT22;35483;50.828;3.228;2023-02-23T12:28:19;11.30;99.90
49579;DHT22;35483;50.828;3.228;2023-02-23T12:31:01;11.40;99.90
49579;DHT22;35483;50.828;3.228;2023-02-23T12:34:03;11.50;99.90
49579;DHT22;35483;50.828;3.228;2023-02-23T12:37:01;11.60;99.90
49579;DHT22;35483;50.828;3.228;2023-02-23T12:39:40;11.70;99.90
49579;DHT22;35483;50.828;3.228;2023-02-23T12:45:01;11.70;99.90
49579;DHT22;35483;50.828;3.228;2023-02-23T12:47:32;11.90;99.90
49579;DHT22;35483;50.828;3.228;2023-02-23T12:50:09;12.00;99.90
49579;DHT22;35483;50.828;3.228;2023-02-23T12:52:51;12.20;99.90
49579;DHT22;35483;50.828;3.228;2023-02-23T12:55:36;12.40;99.90
49579;DHT22;35483;50.828;3.228;2023-02-23T13:14:11;12.10;99.90
49579;DHT22;35483;50.828;3.228;2023-02-23T13:16:50;12.10;99.90
49579;DHT22;35483;50.828;3.228;2023-02-23T13:24:52;11.60;99.90
49579;DHT22;35483;50.828;3.228;2023-02-23T13:29:51;11.50;99.90
49579;DHT22;35483;50.828;3.228;2023-02-23T13:32:27;11.30;99.90
49579;DHT22;35483;50.828;3.228;2023-02-23T13:35:01;11.10;99.90
49579;DHT22;35483;50.828;3.228;2023-02-23T13:37:38;11.10;99.90
49579;DHT22;35483;50.828;3.228;2023-02-23T13:40:15;11.00;99.90
49579;DHT22;35483;50.828;3.228;2023-02-23T13:50:56;11.10;99.90
49579;DHT22;35483;50.828;3.228;2023-02-23T13:53:45;11.10;99.90
49579;DHT22;35483;50.828;3.228;2023-02-23T13:56:16;11.20;99.90
49579;DHT22;35483;50.828;3.228;2023-02-23T13:59:07;11.10;99.90
49579;DHT22;35483;50.828;3.228;2023-02-23T14:01:37;11.10;99.90
49579;DHT22;35483;50.828;3.228;2023-02-23T14:04:19;11.10;99.90
49579;DHT22;35483;50.828;3.228;2023-02-23T14:09:57;11.10;99.90
49579;DHT22;35483;50.828;3.228;2023-02-23T14:12:41;11.20;99.90
49579;DHT22;35483;50.828;3.228;2023-02-23T14:15:27;11.20;99.90
49579;DHT22;35483;50.828;3.228;2023-02-23T14:18:00;11.40;99.90
49579;DHT22;35483;50.828;3.228;2023-02-23T14:20:42;11.40;99.90
49579;DHT22;35483;50.828;3.228;2023-02-23T14:25:51;11.40;99.90
49579;DHT22;35483;50.828;3.228;2023-02-23T14:33:48;11.50;99.90
49579;DHT22;35483;50.828;3.228;2023-02-23T14:44:36;11.50;99.90
49579;DHT22;35483;50.828;3.228;2023-02-23T14:47:15;11.50;99.90
49579;DHT22;35483;50.828;3.228;2023-02-23T14:49:52;11.50;99.90
49579;DHT22;35483;50.828;3.228;2023-02-23T14:52:23;11.50;99.90
49579;DHT22;35483;50.828;3.228;2023-02-23T14:54:50;11.50;99.90
49579;DHT22;35483;50.828;3.228;2023-02-23T14:57:21;11.50;99.90
49579;DHT22;35483;50.828;3.228;2023-02-23T14:59:57;11.40;99.90
49579;DHT22;35483;50.828;3.228;2023-02-23T15:02:25;11.50;99.90
49579;DHT22;35483;50.828;3.228;2023-02-23T15:04:51;11.30;99.90
49579;DHT22;35483;50.828;3.228;2023-02-23T15:09:56;11.40;99.90
49579;DHT22;35483;50.828;3.228;2023-02-23T15:12:27;11.30;99.90
49579;DHT22;35483;50.828;3.228;2023-02-23T15:14:59;11.30;99.90
49579;DHT22;35483;50.828;3.228;2023-02-23T15:17:28;11.40;99.90
49579;DHT22;35483;50.828;3.228;2023-02-23T15:20:09;11.30;99.90
49579;DHT22;35483;50.828;3.228;2023-02-23T15:22:38;11.30;99.90
49579;DHT22;35483;50.828;3.228;2023-02-23T15:25:14;11.20;99.90
49579;DHT22;35483;50.828;3.228;2023-02-23T15:27:42;11.20;99.90
49579;DHT22;35483;50.828;3.228;2023-02-23T15:30:28;11.10;99.90
49579;DHT22;35483;50.828;3.228;2023-02-23T15:33:04;11.20;99.90
49579;DHT22;35483;50.828;3.228;2023-02-23T15:35:38;11.20;99.90
49579;DHT22;35483;50.828;3.228;2023-02-23T15:38:07;11.20;99.90
49579;DHT22;35483;50.828;3.228;2023-02-23T15:40:33;11.10;99.90
49579;DHT22;35483;50.828;3.228;2023-02-23T15:42:59;11.00;99.90
49579;DHT22;35483;50.828;3.228;2023-02-23T15:45:36;11.00;99.90
49579;DHT22;35483;50.828;3.228;2023-02-23T15:48:08;10.80;99.90
49579;DHT22;35483;50.828;3.228;2023-02-23T15:50:41;10.90;99.90
49579;DHT22;35483;50.828;3.228;2023-02-23T15:53:16;10.80;99.90
49579;DHT22;35483;50.828;3.228;2023-02-23T15:55:46;10.80;99.90
49579;DHT22;35483;50.828;3.228;2023-02-23T15:58:21;10.80;99.90
49579;DHT22;35483;50.828;3.228;2023-02-23T16:01:00;10.70;99.90
49579;DHT22;35483;50.828;3.228;2023-02-23T16:03:43;10.70;99.90
49579;DHT22;35483;50.828;3.228;2023-02-23T16:09:23;10.70;99.90
49579;DHT22;35483;50.828;3.228;2023-02-23T16:14:49;10.60;99.90
49579;DHT22;35483;50.828;3.228;2023-02-23T16:17:41;10.60;99.90
49579;DHT22;35483;50.828;3.228;2023-02-23T16:20:34;10.50;99.90
49579;DHT22;35483;50.828;3.228;2023-02-23T16:23:03;10.60;99.90
49579;DHT22;35483;50.828;3.228;2023-02-23T16:25:30;10.60;99.90
49579;DHT22;35483;50.828;3.228;2023-02-23T16:28:00;10.50;99.90
49579;DHT22;35483;50.828;3.228;2023-02-23T16:33:23;10.50;99.90
49579;DHT22;35483;50.828;3.228;2023-02-23T16:36:04;10.60;99.90
49579;DHT22;35483;50.828;3.228;2023-02-23T16:38:36;10.60;99.90
49579;DHT22;35483;50.828;3.228;2023-02-23T16:41:04;10.60;99.90
49579;DHT22;35483;50.828;3.228;2023-02-23T16:43:32;10.70;99.90
49579;DHT22;35483;50.828;3.228;2023-02-23T16:45:59;10.70;99.90
49579;DHT22;35483;50.828;3.228;2023-02-23T16:48:25;10.70;99.90
49579;DHT22;35483;50.828;3.228;2023-02-23T16:50:51;10.70;99.90
49579;DHT22;35483;50.828;3.228;2023-02-23T16:53:17;10.80;99.90
49579;DHT22;35483;50.828;3.228;2023-02-23T16:55:51;10.70;99.90
49579;DHT22;35483;50.828;3.228;2023-02-23T16:58:20;10.70;99.90
49579;DHT22;35483;50.828;3.228;2023-02-23T17:00:47;10.70;99.90
49579;DHT22;35483;50.828;3.228;2023-02-23T17:03:17;10.60;99.90
49579;DHT22;35483;50.828;3.228;2023-02-23T17:05:45;10.70;99.90
49579;DHT22;35483;50.828;3.228;2023-02-23T17:08:10;10.70;99.90
49579;DHT22;35483;50.828;3.228;2023-02-23T17:10:36;10.70;99.90
49579;DHT22;35483;50.828;3.228;2023-02-23T17:13:05;10.70;99.90
49579;DHT22;35483;50.828;3.228;2023-02-23T17:15:39;10.60;99.90
49579;DHT22;35483;50.828;3.228;2023-02-23T17:18:06;10.60;99.90
49579;DHT22;35483;50.828;3.228;2023-02-23T17:20:32;10.60;99.90
49579;DHT22;35483;50.828;3.228;2023-02-23T17:23:00;10.50;99.90
49579;DHT22;35483;50.828;3.228;2023-02-23T17:25:26;10.30;99.90
49579;DHT22;35483;50.828;3.228;2023-02-23T17:27:53;10.40;99.90
49579;DHT22;35483;50.828;3.228;2023-02-23T17:30:19;10.40;99.90
49579;DHT22;35483;50.828;3.228;2023-02-23T17:32:45;10.50;99.90
49579;DHT22;35483;50.828;3.228;2023-02-23T17:35:12;10.40;99.90
49579;DHT22;35483;50.828;3.228;2023-02-23T17:37:38;10.40;99.90
49579;DHT22;35483;50.828;3.228;2023-02-23T17:40:10;10.40;99.90
49579;DHT22;35483;50.828;3.228;2023-02-23T17:42:36;10.40;99.90
49579;DHT22;35483;50.828;3.228;2023-02-23T17:45:05;10.40;99.90
49579;DHT22;35483;50.828;3.228;2023-02-23T17:47:32;10.40;99.90
49579;DHT22;35483;50.828;3.228;2023-02-23T17:49:59;10.40;99.90
49579;DHT22;35483;50.828;3.228;2023-02-23T17:52:27;10.30;99.90
49579;DHT22;35483;50.828;3.228;2023-02-23T17:54:53;10.30;99.90
49579;DHT22;35483;50.828;3.228;2023-02-23T17:57:23;10.30;99.90
49579;DHT22;35483;50.828;3.228;2023-02-23T17:59:49;10.30;99.90
49579;DHT22;35483;50.828;3.228;2023-02-23T18:02:18;10.30;99.90
49579;DHT22;35483;50.828;3.228;2023-02-23T18:04:48;10.30;99.90
49579;DHT22;35483;50.828;3.228;2023-02-23T18:07:14;10.30;99.90
49579;DHT22;35483;50.828;3.228;2023-02-23T18:09:40;10.30;99.90